sensor_id;sensor_type;location;lat;lon;timestamp;P1;durP1;ratioP1;P2;durP2;ratioP2
21645;SDS011;10984;45.712;4.800;2023-02-11T00:00:15;51.72;;;22.02;;
21645;SDS011;10984;45.712;4.800;2023-02-11T00:02:42;50.65;;;20.08;;
21645;SDS011;10984;45.712;4.800;2023-02-11T00:05:08;50.65;;;22.10;;
21645;SDS011;10984;45.712;4.800;2023-02-11T00:07:34;48.65;;;21.50;;
21645;SDS011;10984;45.712;4.800;2023-02-11T00:10:00;47.90;;;21.70;;
21645;SDS011;10984;45.712;4.800;2023-02-11T00:12:44;44.05;;;21.90;;
21645;SDS011;10984;45.712;4.800;2023-02-11T00:15:10;44.65;;;22.85;;
21645;SDS011;10984;45.712;4.800;2023-02-11T00:17:35;46.40;;;22.85;;
21645;SDS011;10984;45.712;4.800;2023-02-11T00:20:01;41.28;;;20.05;;
21645;SDS011;10984;45.712;4.800;2023-02-11T00:22:27;45.72;;;21.35;;
21645;SDS011;10984;45.712;4.800;2023-02-11T00:24:52;46.95;;;22.00;;
21645;SDS011;10984;45.712;4.800;2023-02-11T00:27:18;46.13;;;23.00;;
21645;SDS011;10984;45.712;4.800;2023-02-11T00:29:43;49.88;;;22.35;;
21645;SDS011;10984;45.712;4.800;2023-02-11T00:32:09;46.15;;;23.05;;
21645;SDS011;10984;45.712;4.800;2023-02-11T00:34:35;44.80;;;21.10;;
21645;SDS011;10984;45.712;4.800;2023-02-11T00:37:02;44.28;;;22.17;;
21645;SDS011;10984;45.712;4.800;2023-02-11T00:39:28;46.33;;;23.13;;
21645;SDS011;10984;45.712;4.800;2023-02-11T00:41:54;50.25;;;22.90;;
21645;SDS011;10984;45.712;4.800;2023-02-11T00:44:20;43.38;;;19.98;;
21645;SDS011;10984;45.712;4.800;2023-02-11T00:46:45;46.25;;;22.83;;
21645;SDS011;10984;45.712;4.800;2023-02-11T00:49:11;48.58;;;21.48;;
21645;SDS011;10984;45.712;4.800;2023-02-11T00:51:37;51.20;;;22.00;;
21645;SDS011;10984;45.712;4.800;2023-02-11T00:54:03;46.83;;;22.58;;
21645;SDS011;10984;45.712;4.800;2023-02-11T00:56:28;45.30;;;22.23;;
21645;SDS011;10984;45.712;4.800;2023-02-11T00:58:54;51.42;;;23.50;;
21645;SDS011;10984;45.712;4.800;2023-02-11T01:01:20;50.92;;;24.45;;
21645;SDS011;10984;45.712;4.800;2023-02-11T01:03:46;47.67;;;22.33;;
21645;SDS011;10984;45.712;4.800;2023-02-11T01:06:11;48.10;;;22.95;;
21645;SDS011;10984;45.712;4.800;2023-02-11T01:08:37;49.35;;;23.90;;
21645;SDS011;10984;45.712;4.800;2023-02-11T01:11:10;46.25;;;22.92;;
21645;SDS011;10984;45.712;4.800;2023-02-11T01:13:38;43.63;;;20.30;;
21645;SDS011;10984;45.712;4.800;2023-02-11T01:16:05;49.63;;;23.30;;
21645;SDS011;10984;45.712;4.800;2023-02-11T01:18:32;43.05;;;20.30;;
21645;SDS011;10984;45.712;4.800;2023-02-11T01:20:57;45.45;;;20.02;;
21645;SDS011;10984;45.712;4.800;2023-02-11T01:23:23;51.65;;;21.88;;
21645;SDS011;10984;45.712;4.800;2023-02-11T01:25:49;48.92;;;22.42;;
21645;SDS011;10984;45.712;4.800;2023-02-11T01:28:19;41.15;;;20.25;;
21645;SDS011;10984;45.712;4.800;2023-02-11T01:30:49;52.17;;;23.38;;
21645;SDS011;10984;45.712;4.800;2023-02-11T01:33:15;48.65;;;21.58;;
21645;SDS011;10984;45.712;4.800;2023-02-11T01:35:41;44.63;;;20.75;;
21645;SDS011;10984;45.712;4.800;2023-02-11T01:38:08;43.95;;;21.90;;
21645;SDS011;10984;45.712;4.800;2023-02-11T01:41:01;47.13;;;21.50;;
21645;SDS011;10984;45.712;4.800;2023-02-11T01:43:33;46.72;;;21.52;;
21645;SDS011;10984;45.712;4.800;2023-02-11T01:46:03;43.05;;;20.00;;
21645;SDS011;10984;45.712;4.800;2023-02-11T01:51:34;45.67;;;21.30;;
21645;SDS011;10984;45.712;4.800;2023-02-11T01:54:20;43.55;;;20.10;;
21645;SDS011;10984;45.712;4.800;2023-02-11T01:57:06;37.53;;;19.38;;
21645;SDS011;10984;45.712;4.800;2023-02-11T01:59:53;42.00;;;20.27;;
21645;SDS011;10984;45.712;4.800;2023-02-11T02:11:35;43.05;;;20.10;;
21645;SDS011;10984;45.712;4.800;2023-02-11T02:14:01;41.33;;;20.17;;
21645;SDS011;10984;45.712;4.800;2023-02-11T02:16:36;42.25;;;18.88;;
21645;SDS011;10984;45.712;4.800;2023-02-11T02:30:40;41.30;;;19.90;;
21645;SDS011;10984;45.712;4.800;2023-02-11T02:33:32;35.65;;;16.27;;
21645;SDS011;10984;45.712;4.800;2023-02-11T02:36:20;40.88;;;17.65;;
21645;SDS011;10984;45.712;4.800;2023-02-11T02:38:54;41.75;;;16.63;;
21645;SDS011;10984;45.712;4.800;2023-02-11T02:41:40;37.25;;;17.40;;
21645;SDS011;10984;45.712;4.800;2023-02-11T02:44:07;37.03;;;17.25;;
21645;SDS011;10984;45.712;4.800;2023-02-11T02:46:33;37.53;;;17.55;;
21645;SDS011;10984;45.712;4.800;2023-02-11T02:49:00;37.17;;;18.23;;
21645;SDS011;10984;45.712;4.800;2023-02-11T03:06:10;40.13;;;18.48;;
21645;SDS011;10984;45.712;4.800;2023-02-11T03:11:26;42.70;;;18.15;;
21645;SDS011;10984;45.712;4.800;2023-02-11T03:13:53;47.25;;;18.42;;
21645;SDS011;10984;45.712;4.800;2023-02-11T03:19:05;40.13;;;18.20;;
21645;SDS011;10984;45.712;4.800;2023-02-11T03:21:53;39.40;;;18.65;;
21645;SDS011;10984;45.712;4.800;2023-02-11T03:24:30;39.40;;;18.10;;
21645;SDS011;10984;45.712;4.800;2023-02-11T03:33:08;37.80;;;16.35;;
21645;SDS011;10984;45.712;4.800;2023-02-11T03:41:27;40.80;;;18.08;;
21645;SDS011;10984;45.712;4.800;2023-02-11T03:43:56;41.72;;;18.75;;
21645;SDS011;10984;45.712;4.800;2023-02-11T03:46:26;36.88;;;16.48;;
21645;SDS011;10984;45.712;4.800;2023-02-11T03:48:57;39.08;;;17.63;;
21645;SDS011;10984;45.712;4.800;2023-02-11T03:51:27;34.38;;;17.35;;
21645;SDS011;10984;45.712;4.800;2023-02-11T03:53:55;37.42;;;17.77;;
21645;SDS011;10984;45.712;4.800;2023-02-11T03:56:25;33.08;;;16.15;;
21645;SDS011;10984;45.712;4.800;2023-02-11T03:58:54;43.33;;;18.90;;
21645;SDS011;10984;45.712;4.800;2023-02-11T04:01:20;35.13;;;16.15;;
21645;SDS011;10984;45.712;4.800;2023-02-11T04:03:45;39.63;;;18.85;;
21645;SDS011;10984;45.712;4.800;2023-02-11T04:06:11;38.28;;;17.80;;
21645;SDS011;10984;45.712;4.800;2023-02-11T04:08:37;39.00;;;17.80;;
21645;SDS011;10984;45.712;4.800;2023-02-11T04:11:02;44.85;;;17.85;;
21645;SDS011;10984;45.712;4.800;2023-02-11T04:13:28;40.30;;;18.10;;
21645;SDS011;10984;45.712;4.800;2023-02-11T04:15:54;45.35;;;20.02;;
21645;SDS011;10984;45.712;4.800;2023-02-11T04:18:20;37.75;;;16.63;;
21645;SDS011;10984;45.712;4.800;2023-02-11T04:20:45;36.75;;;18.15;;
21645;SDS011;10984;45.712;4.800;2023-02-11T04:23:12;37.85;;;18.52;;
21645;SDS011;10984;45.712;4.800;2023-02-11T04:25:38;39.92;;;18.73;;
21645;SDS011;10984;45.712;4.800;2023-02-11T04:28:03;42.78;;;18.70;;
21645;SDS011;10984;45.712;4.800;2023-02-11T04:30:29;38.42;;;16.88;;
21645;SDS011;10984;45.712;4.800;2023-02-11T04:32:55;38.70;;;17.77;;
21645;SDS011;10984;45.712;4.800;2023-02-11T04:35:22;37.95;;;17.80;;
21645;SDS011;10984;45.712;4.800;2023-02-11T04:37:48;43.40;;;18.40;;
21645;SDS011;10984;45.712;4.800;2023-02-11T04:40:13;42.42;;;18.90;;
21645;SDS011;10984;45.712;4.800;2023-02-11T04:42:39;36.92;;;17.58;;
21645;SDS011;10984;45.712;4.800;2023-02-11T04:45:05;39.38;;;18.15;;
21645;SDS011;10984;45.712;4.800;2023-02-11T04:47:31;40.47;;;17.83;;
21645;SDS011;10984;45.712;4.800;2023-02-11T04:49:57;38.30;;;15.90;;
21645;SDS011;10984;45.712;4.800;2023-02-11T04:52:23;39.97;;;17.38;;
21645;SDS011;10984;45.712;4.800;2023-02-11T04:54:49;40.33;;;18.17;;
21645;SDS011;10984;45.712;4.800;2023-02-11T04:57:14;32.88;;;16.98;;
21645;SDS011;10984;45.712;4.800;2023-02-11T04:59:40;34.58;;;17.00;;
21645;SDS011;10984;45.712;4.800;2023-02-11T05:02:06;39.17;;;16.65;;
21645;SDS011;10984;45.712;4.800;2023-02-11T05:04:31;41.67;;;17.73;;
21645;SDS011;10984;45.712;4.800;2023-02-11T05:06:57;40.47;;;17.98;;
21645;SDS011;10984;45.712;4.800;2023-02-11T05:09:23;37.92;;;18.40;;
21645;SDS011;10984;45.712;4.800;2023-02-11T05:11:48;37.88;;;15.95;;
21645;SDS011;10984;45.712;4.800;2023-02-11T05:14:14;35.80;;;17.23;;
21645;SDS011;10984;45.712;4.800;2023-02-11T05:16:39;41.65;;;18.63;;
21645;SDS011;10984;45.712;4.800;2023-02-11T05:19:05;32.58;;;16.48;;
21645;SDS011;10984;45.712;4.800;2023-02-11T05:21:31;35.88;;;16.63;;
21645;SDS011;10984;45.712;4.800;2023-02-11T05:23:56;35.50;;;16.75;;
21645;SDS011;10984;45.712;4.800;2023-02-11T05:26:22;34.72;;;15.32;;
21645;SDS011;10984;45.712;4.800;2023-02-11T05:28:48;37.05;;;16.77;;
21645;SDS011;10984;45.712;4.800;2023-02-11T05:31:13;36.45;;;16.95;;
21645;SDS011;10984;45.712;4.800;2023-02-11T05:33:40;40.50;;;17.80;;
21645;SDS011;10984;45.712;4.800;2023-02-11T05:36:07;39.53;;;17.85;;
21645;SDS011;10984;45.712;4.800;2023-02-11T05:38:35;33.55;;;16.38;;
21645;SDS011;10984;45.712;4.800;2023-02-11T05:41:01;39.10;;;16.88;;
21645;SDS011;10984;45.712;4.800;2023-02-11T05:43:27;33.05;;;16.00;;
21645;SDS011;10984;45.712;4.800;2023-02-11T05:45:52;39.28;;;15.45;;
21645;SDS011;10984;45.712;4.800;2023-02-11T05:48:18;37.90;;;15.70;;
21645;SDS011;10984;45.712;4.800;2023-02-11T05:50:44;41.55;;;16.10;;
21645;SDS011;10984;45.712;4.800;2023-02-11T05:53:09;42.85;;;17.48;;
21645;SDS011;10984;45.712;4.800;2023-02-11T05:55:36;39.20;;;16.92;;
21645;SDS011;10984;45.712;4.800;2023-02-11T05:58:02;38.90;;;15.82;;
21645;SDS011;10984;45.712;4.800;2023-02-11T06:00:27;31.27;;;15.57;;
21645;SDS011;10984;45.712;4.800;2023-02-11T06:02:53;41.22;;;17.77;;
21645;SDS011;10984;45.712;4.800;2023-02-11T06:05:19;37.28;;;17.45;;
21645;SDS011;10984;45.712;4.800;2023-02-11T06:07:45;35.63;;;17.75;;
21645;SDS011;10984;45.712;4.800;2023-02-11T06:10:10;36.35;;;17.10;;
21645;SDS011;10984;45.712;4.800;2023-02-11T06:12:36;38.75;;;16.13;;
21645;SDS011;10984;45.712;4.800;2023-02-11T06:15:02;36.40;;;16.08;;
21645;SDS011;10984;45.712;4.800;2023-02-11T06:17:29;33.47;;;15.85;;
21645;SDS011;10984;45.712;4.800;2023-02-11T06:20:13;37.75;;;16.58;;
21645;SDS011;10984;45.712;4.800;2023-02-11T06:22:39;36.30;;;17.27;;
21645;SDS011;10984;45.712;4.800;2023-02-11T06:25:05;37.08;;;16.20;;
21645;SDS011;10984;45.712;4.800;2023-02-11T06:27:30;32.85;;;14.35;;
21645;SDS011;10984;45.712;4.800;2023-02-11T06:29:56;33.95;;;16.02;;
21645;SDS011;10984;45.712;4.800;2023-02-11T06:32:22;33.58;;;15.52;;
21645;SDS011;10984;45.712;4.800;2023-02-11T06:34:48;34.83;;;16.35;;
21645;SDS011;10984;45.712;4.800;2023-02-11T06:37:13;37.80;;;15.25;;
21645;SDS011;10984;45.712;4.800;2023-02-11T06:39:39;36.88;;;17.50;;
21645;SDS011;10984;45.712;4.800;2023-02-11T06:42:05;35.70;;;16.10;;
21645;SDS011;10984;45.712;4.800;2023-02-11T06:44:30;41.60;;;19.60;;
21645;SDS011;10984;45.712;4.800;2023-02-11T06:46:56;34.88;;;18.02;;
21645;SDS011;10984;45.712;4.800;2023-02-11T06:49:22;40.83;;;18.08;;
21645;SDS011;10984;45.712;4.800;2023-02-11T06:51:47;38.97;;;17.90;;
21645;SDS011;10984;45.712;4.800;2023-02-11T06:54:13;35.50;;;16.77;;
21645;SDS011;10984;45.712;4.800;2023-02-11T06:56:39;36.15;;;16.98;;
21645;SDS011;10984;45.712;4.800;2023-02-11T06:59:05;43.67;;;18.95;;
21645;SDS011;10984;45.712;4.800;2023-02-11T07:01:31;36.17;;;17.85;;
21645;SDS011;10984;45.712;4.800;2023-02-11T07:03:56;35.70;;;17.35;;
21645;SDS011;10984;45.712;4.800;2023-02-11T07:06:23;39.28;;;18.45;;
21645;SDS011;10984;45.712;4.800;2023-02-11T07:08:51;42.47;;;18.65;;
21645;SDS011;10984;45.712;4.800;2023-02-11T07:11:19;39.72;;;17.90;;
21645;SDS011;10984;45.712;4.800;2023-02-11T07:13:48;45.92;;;21.52;;
21645;SDS011;10984;45.712;4.800;2023-02-11T07:16:15;41.67;;;20.77;;
21645;SDS011;10984;45.712;4.800;2023-02-11T07:18:42;41.53;;;18.73;;
21645;SDS011;10984;45.712;4.800;2023-02-11T07:21:10;38.20;;;17.10;;
21645;SDS011;10984;45.712;4.800;2023-02-11T07:23:37;34.67;;;16.52;;
21645;SDS011;10984;45.712;4.800;2023-02-11T07:26:05;38.60;;;18.15;;
21645;SDS011;10984;45.712;4.800;2023-02-11T07:28:33;36.20;;;17.05;;
21645;SDS011;10984;45.712;4.800;2023-02-11T07:33:50;33.00;;;16.33;;
21645;SDS011;10984;45.712;4.800;2023-02-11T07:36:17;43.17;;;19.05;;
21645;SDS011;10984;45.712;4.800;2023-02-11T07:38:43;39.65;;;18.38;;
21645;SDS011;10984;45.712;4.800;2023-02-11T07:41:10;34.45;;;16.67;;
21645;SDS011;10984;45.712;4.800;2023-02-11T07:43:38;39.92;;;18.10;;
21645;SDS011;10984;45.712;4.800;2023-02-11T07:46:09;41.58;;;16.92;;
21645;SDS011;10984;45.712;4.800;2023-02-11T07:48:36;39.67;;;17.45;;
21645;SDS011;10984;45.712;4.800;2023-02-11T07:53:48;41.25;;;18.80;;
21645;SDS011;10984;45.712;4.800;2023-02-11T07:56:14;40.15;;;17.75;;
21645;SDS011;10984;45.712;4.800;2023-02-11T07:58:41;36.33;;;18.38;;
21645;SDS011;10984;45.712;4.800;2023-02-11T08:01:08;41.35;;;19.80;;
21645;SDS011;10984;45.712;4.800;2023-02-11T08:03:54;44.33;;;18.83;;
21645;SDS011;10984;45.712;4.800;2023-02-11T08:06:21;40.10;;;17.90;;
21645;SDS011;10984;45.712;4.800;2023-02-11T08:08:48;38.00;;;18.65;;
21645;SDS011;10984;45.712;4.800;2023-02-11T08:11:16;43.63;;;19.30;;
21645;SDS011;10984;45.712;4.800;2023-02-11T08:13:43;41.13;;;19.33;;
21645;SDS011;10984;45.712;4.800;2023-02-11T08:16:16;42.97;;;19.67;;
21645;SDS011;10984;45.712;4.800;2023-02-11T08:19:01;36.10;;;17.35;;
21645;SDS011;10984;45.712;4.800;2023-02-11T08:21:29;38.88;;;18.42;;
21645;SDS011;10984;45.712;4.800;2023-02-11T08:23:54;37.25;;;18.38;;
21645;SDS011;10984;45.712;4.800;2023-02-11T08:26:25;41.92;;;18.45;;
21645;SDS011;10984;45.712;4.800;2023-02-11T08:28:53;36.78;;;17.88;;
21645;SDS011;10984;45.712;4.800;2023-02-11T08:31:21;45.63;;;19.33;;
21645;SDS011;10984;45.712;4.800;2023-02-11T08:33:48;38.38;;;18.23;;
21645;SDS011;10984;45.712;4.800;2023-02-11T08:39:00;38.38;;;18.08;;
21645;SDS011;10984;45.712;4.800;2023-02-11T08:41:29;37.67;;;18.00;;
21645;SDS011;10984;45.712;4.800;2023-02-11T08:43:55;38.28;;;18.65;;
21645;SDS011;10984;45.712;4.800;2023-02-11T08:46:21;35.50;;;18.00;;
21645;SDS011;10984;45.712;4.800;2023-02-11T08:48:47;41.08;;;18.75;;
21645;SDS011;10984;45.712;4.800;2023-02-11T08:51:17;35.63;;;17.73;;
21645;SDS011;10984;45.712;4.800;2023-02-11T08:53:45;43.08;;;19.05;;
21645;SDS011;10984;45.712;4.800;2023-02-11T08:56:11;41.70;;;19.38;;
21645;SDS011;10984;45.712;4.800;2023-02-11T08:58:38;42.50;;;19.88;;
21645;SDS011;10984;45.712;4.800;2023-02-11T09:03:50;46.65;;;21.05;;
21645;SDS011;10984;45.712;4.800;2023-02-11T09:06:17;41.53;;;19.80;;
21645;SDS011;10984;45.712;4.800;2023-02-11T09:08:44;45.72;;;21.30;;
21645;SDS011;10984;45.712;4.800;2023-02-11T09:11:11;43.63;;;20.00;;
21645;SDS011;10984;45.712;4.800;2023-02-11T09:13:39;42.80;;;20.52;;
21645;SDS011;10984;45.712;4.800;2023-02-11T09:16:05;41.72;;;20.35;;
21645;SDS011;10984;45.712;4.800;2023-02-11T09:18:31;42.83;;;20.42;;
21645;SDS011;10984;45.712;4.800;2023-02-11T09:23:42;48.45;;;21.50;;
21645;SDS011;10984;45.712;4.800;2023-02-11T09:26:13;44.78;;;20.35;;
21645;SDS011;10984;45.712;4.800;2023-02-11T09:28:57;51.13;;;22.58;;
21645;SDS011;10984;45.712;4.800;2023-02-11T09:31:24;43.70;;;21.35;;
21645;SDS011;10984;45.712;4.800;2023-02-11T09:33:53;43.03;;;20.05;;
21645;SDS011;10984;45.712;4.800;2023-02-11T09:39:07;37.15;;;18.92;;
21645;SDS011;10984;45.712;4.800;2023-02-11T09:44:02;34.80;;;17.25;;
21645;SDS011;10984;45.712;4.800;2023-02-11T09:46:32;29.80;;;14.55;;
21645;SDS011;10984;45.712;4.800;2023-02-11T09:49:01;33.00;;;15.10;;
21645;SDS011;10984;45.712;4.800;2023-02-11T09:57:18;28.58;;;13.80;;
21645;SDS011;10984;45.712;4.800;2023-02-11T09:59:44;34.42;;;15.00;;
21645;SDS011;10984;45.712;4.800;2023-02-11T10:02:16;40.90;;;18.02;;
21645;SDS011;10984;45.712;4.800;2023-02-11T10:10:39;29.98;;;14.50;;
21645;SDS011;10984;45.712;4.800;2023-02-11T10:27:49;33.00;;;15.63;;
21645;SDS011;10984;45.712;4.800;2023-02-11T10:33:03;42.40;;;21.23;;
21645;SDS011;10984;45.712;4.800;2023-02-11T10:35:48;39.85;;;20.30;;
21645;SDS011;10984;45.712;4.800;2023-02-11T10:38:14;42.35;;;21.13;;
21645;SDS011;10984;45.712;4.800;2023-02-11T10:40:40;43.97;;;21.80;;
21645;SDS011;10984;45.712;4.800;2023-02-11T10:43:07;46.45;;;21.73;;
21645;SDS011;10984;45.712;4.800;2023-02-11T10:45:38;48.00;;;20.85;;
21645;SDS011;10984;45.712;4.800;2023-02-11T10:48:34;43.40;;;20.88;;
21645;SDS011;10984;45.712;4.800;2023-02-11T10:56:46;42.15;;;21.17;;
21645;SDS011;10984;45.712;4.800;2023-02-11T10:59:18;39.03;;;18.20;;
21645;SDS011;10984;45.712;4.800;2023-02-11T11:08:11;41.92;;;19.67;;
21645;SDS011;10984;45.712;4.800;2023-02-11T11:24:31;43.33;;;21.80;;
21645;SDS011;10984;45.712;4.800;2023-02-11T11:27:22;46.55;;;20.23;;
21645;SDS011;10984;45.712;4.800;2023-02-11T11:29:49;50.13;;;21.92;;
21645;SDS011;10984;45.712;4.800;2023-02-11T11:35:06;46.25;;;22.58;;
21645;SDS011;10984;45.712;4.800;2023-02-11T11:37:44;43.42;;;21.17;;
21645;SDS011;10984;45.712;4.800;2023-02-11T11:48:34;39.88;;;20.25;;
21645;SDS011;10984;45.712;4.800;2023-02-11T11:51:03;43.85;;;20.98;;
21645;SDS011;10984;45.712;4.800;2023-02-11T11:56:35;41.22;;;20.55;;
21645;SDS011;10984;45.712;4.800;2023-02-11T11:59:17;46.97;;;23.23;;
21645;SDS011;10984;45.712;4.800;2023-02-11T12:04:31;41.55;;;19.98;;
21645;SDS011;10984;45.712;4.800;2023-02-11T12:55:01;36.78;;;19.50;;
21645;SDS011;10984;45.712;4.800;2023-02-11T12:57:32;46.25;;;19.05;;
21645;SDS011;10984;45.712;4.800;2023-02-11T13:05:36;43.65;;;18.63;;
21645;SDS011;10984;45.712;4.800;2023-02-11T13:17:08;38.03;;;17.70;;
21645;SDS011;10984;45.712;4.800;2023-02-11T13:19:57;42.03;;;18.77;;
21645;SDS011;10984;45.712;4.800;2023-02-11T13:31:04;42.22;;;19.20;;
21645;SDS011;10984;45.712;4.800;2023-02-11T13:39:02;36.63;;;17.25;;
21645;SDS011;10984;45.712;4.800;2023-02-11T13:41:33;35.17;;;17.65;;
21645;SDS011;10984;45.712;4.800;2023-02-11T13:55:04;32.88;;;16.38;;
21645;SDS011;10984;45.712;4.800;2023-02-11T14:00:55;35.63;;;17.45;;
21645;SDS011;10984;45.712;4.800;2023-02-11T14:06:59;33.67;;;16.35;;
21645;SDS011;10984;45.712;4.800;2023-02-11T14:23:51;36.60;;;17.23;;
21645;SDS011;10984;45.712;4.800;2023-02-11T14:43:51;32.88;;;15.00;;
21645;SDS011;10984;45.712;4.800;2023-02-11T14:46:22;33.30;;;15.95;;
21645;SDS011;10984;45.712;4.800;2023-02-11T14:48:53;34.58;;;16.85;;
21645;SDS011;10984;45.712;4.800;2023-02-11T14:51:22;36.53;;;16.23;;
21645;SDS011;10984;45.712;4.800;2023-02-11T14:59:56;32.65;;;15.43;;
21645;SDS011;10984;45.712;4.800;2023-02-11T15:02:41;31.70;;;14.93;;
21645;SDS011;10984;45.712;4.800;2023-02-11T15:08:12;34.78;;;16.40;;
21645;SDS011;10984;45.712;4.800;2023-02-11T15:13:24;32.55;;;13.50;;
21645;SDS011;10984;45.712;4.800;2023-02-11T15:15:56;33.78;;;15.55;;
21645;SDS011;10984;45.712;4.800;2023-02-11T15:18:29;34.85;;;16.02;;
21645;SDS011;10984;45.712;4.800;2023-02-11T15:20:58;31.38;;;14.15;;
21645;SDS011;10984;45.712;4.800;2023-02-11T15:23:24;32.72;;;14.75;;
21645;SDS011;10984;45.712;4.800;2023-02-11T15:25:52;30.27;;;14.30;;
21645;SDS011;10984;45.712;4.800;2023-02-11T15:31:16;26.55;;;13.18;;
21645;SDS011;10984;45.712;4.800;2023-02-11T15:33:43;28.10;;;13.00;;
21645;SDS011;10984;45.712;4.800;2023-02-11T15:44:46;35.03;;;14.82;;
21645;SDS011;10984;45.712;4.800;2023-02-11T15:49:58;28.15;;;13.43;;
21645;SDS011;10984;45.712;4.800;2023-02-11T15:52:24;27.88;;;13.98;;
21645;SDS011;10984;45.712;4.800;2023-02-11T15:54:52;32.70;;;13.60;;
21645;SDS011;10984;45.712;4.800;2023-02-11T15:57:20;31.48;;;13.15;;
21645;SDS011;10984;45.712;4.800;2023-02-11T15:59:48;31.95;;;14.20;;
21645;SDS011;10984;45.712;4.800;2023-02-11T16:05:03;29.20;;;12.95;;
21645;SDS011;10984;45.712;4.800;2023-02-11T16:26:59;29.92;;;14.15;;
21645;SDS011;10984;45.712;4.800;2023-02-11T16:29:30;31.83;;;13.90;;
21645;SDS011;10984;45.712;4.800;2023-02-11T16:35:00;31.08;;;14.00;;
21645;SDS011;10984;45.712;4.800;2023-02-11T16:37:26;31.85;;;14.32;;
21645;SDS011;10984;45.712;4.800;2023-02-11T16:42:36;32.45;;;15.10;;
21645;SDS011;10984;45.712;4.800;2023-02-11T16:45:02;40.03;;;18.48;;
21645;SDS011;10984;45.712;4.800;2023-02-11T16:47:28;36.05;;;17.50;;
21645;SDS011;10984;45.712;4.800;2023-02-11T16:49:55;38.17;;;17.27;;
21645;SDS011;10984;45.712;4.800;2023-02-11T16:52:21;35.05;;;15.93;;
21645;SDS011;10984;45.712;4.800;2023-02-11T16:54:48;37.95;;;17.65;;
21645;SDS011;10984;45.712;4.800;2023-02-11T16:57:17;32.08;;;15.70;;
21645;SDS011;10984;45.712;4.800;2023-02-11T16:59:48;38.60;;;16.65;;
21645;SDS011;10984;45.712;4.800;2023-02-11T17:02:15;32.25;;;15.27;;
21645;SDS011;10984;45.712;4.800;2023-02-11T17:04:45;25.90;;;13.45;;
21645;SDS011;10984;45.712;4.800;2023-02-11T17:07:11;27.70;;;14.05;;
21645;SDS011;10984;45.712;4.800;2023-02-11T17:09:37;27.95;;;13.80;;
21645;SDS011;10984;45.712;4.800;2023-02-11T17:12:02;31.83;;;14.98;;
21645;SDS011;10984;45.712;4.800;2023-02-11T17:14:28;28.48;;;14.63;;
21645;SDS011;10984;45.712;4.800;2023-02-11T17:16:54;34.50;;;16.13;;
21645;SDS011;10984;45.712;4.800;2023-02-11T17:19:21;35.60;;;17.48;;
21645;SDS011;10984;45.712;4.800;2023-02-11T17:21:48;33.90;;;17.42;;
21645;SDS011;10984;45.712;4.800;2023-02-11T17:24:16;37.38;;;16.50;;
21645;SDS011;10984;45.712;4.800;2023-02-11T17:26:43;33.58;;;16.52;;
21645;SDS011;10984;45.712;4.800;2023-02-11T17:29:11;30.63;;;15.10;;
21645;SDS011;10984;45.712;4.800;2023-02-11T17:31:40;33.78;;;15.85;;
21645;SDS011;10984;45.712;4.800;2023-02-11T17:34:05;26.23;;;13.45;;
21645;SDS011;10984;45.712;4.800;2023-02-11T17:36:31;34.08;;;16.45;;
21645;SDS011;10984;45.712;4.800;2023-02-11T17:38:58;34.80;;;15.07;;
21645;SDS011;10984;45.712;4.800;2023-02-11T17:41:24;29.70;;;15.00;;
21645;SDS011;10984;45.712;4.800;2023-02-11T17:43:50;33.88;;;15.02;;
21645;SDS011;10984;45.712;4.800;2023-02-11T17:46:16;34.20;;;17.30;;
21645;SDS011;10984;45.712;4.800;2023-02-11T17:48:42;34.83;;;17.20;;
21645;SDS011;10984;45.712;4.800;2023-02-11T17:53:52;32.88;;;17.00;;
21645;SDS011;10984;45.712;4.800;2023-02-11T17:56:20;38.88;;;18.80;;
21645;SDS011;10984;45.712;4.800;2023-02-11T17:58:46;37.28;;;18.83;;
21645;SDS011;10984;45.712;4.800;2023-02-11T18:01:12;45.78;;;21.25;;
21645;SDS011;10984;45.712;4.800;2023-02-11T18:03:37;38.53;;;19.40;;
21645;SDS011;10984;45.712;4.800;2023-02-11T18:06:03;45.05;;;21.75;;
21645;SDS011;10984;45.712;4.800;2023-02-11T18:08:31;44.13;;;20.80;;
21645;SDS011;10984;45.712;4.800;2023-02-11T18:10:57;39.78;;;19.33;;
21645;SDS011;10984;45.712;4.800;2023-02-11T18:13:23;38.33;;;19.50;;
21645;SDS011;10984;45.712;4.800;2023-02-11T18:15:49;41.58;;;17.65;;
21645;SDS011;10984;45.712;4.800;2023-02-11T18:18:15;37.50;;;16.88;;
21645;SDS011;10984;45.712;4.800;2023-02-11T18:20:41;35.38;;;17.17;;
21645;SDS011;10984;45.712;4.800;2023-02-11T18:23:07;33.90;;;16.48;;
21645;SDS011;10984;45.712;4.800;2023-02-11T18:25:34;33.58;;;16.52;;
21645;SDS011;10984;45.712;4.800;2023-02-11T18:28:00;33.10;;;17.13;;
21645;SDS011;10984;45.712;4.800;2023-02-11T18:30:26;39.42;;;18.52;;
21645;SDS011;10984;45.712;4.800;2023-02-11T18:35:38;42.47;;;21.80;;
21645;SDS011;10984;45.712;4.800;2023-02-11T18:38:05;40.25;;;18.77;;
21645;SDS011;10984;45.712;4.800;2023-02-11T18:40:31;47.10;;;20.42;;
21645;SDS011;10984;45.712;4.800;2023-02-11T18:42:56;43.33;;;20.40;;
21645;SDS011;10984;45.712;4.800;2023-02-11T18:45:22;46.38;;;21.80;;
21645;SDS011;10984;45.712;4.800;2023-02-11T18:47:48;50.22;;;23.70;;
21645;SDS011;10984;45.712;4.800;2023-02-11T18:50:14;43.33;;;23.50;;
21645;SDS011;10984;45.712;4.800;2023-02-11T18:52:40;44.90;;;22.77;;
21645;SDS011;10984;45.712;4.800;2023-02-11T18:55:06;50.08;;;22.10;;
21645;SDS011;10984;45.712;4.800;2023-02-11T18:57:32;47.70;;;22.02;;
21645;SDS011;10984;45.712;4.800;2023-02-11T18:59:58;45.80;;;22.52;;
21645;SDS011;10984;45.712;4.800;2023-02-11T19:02:24;47.55;;;22.98;;
21645;SDS011;10984;45.712;4.800;2023-02-11T19:04:50;48.50;;;23.30;;
21645;SDS011;10984;45.712;4.800;2023-02-11T19:07:15;47.58;;;23.52;;
21645;SDS011;10984;45.712;4.800;2023-02-11T19:09:41;52.60;;;24.95;;
21645;SDS011;10984;45.712;4.800;2023-02-11T19:12:07;55.72;;;26.13;;
21645;SDS011;10984;45.712;4.800;2023-02-11T19:14:34;53.58;;;24.45;;
21645;SDS011;10984;45.712;4.800;2023-02-11T19:17:04;48.78;;;21.98;;
21645;SDS011;10984;45.712;4.800;2023-02-11T19:19:32;55.45;;;24.25;;
21645;SDS011;10984;45.712;4.800;2023-02-11T19:22:00;48.75;;;23.08;;
21645;SDS011;10984;45.712;4.800;2023-02-11T19:24:27;47.97;;;23.20;;
21645;SDS011;10984;45.712;4.800;2023-02-11T19:26:55;49.88;;;22.92;;
21645;SDS011;10984;45.712;4.800;2023-02-11T19:29:22;44.75;;;21.33;;
21645;SDS011;10984;45.712;4.800;2023-02-11T19:31:47;51.80;;;22.90;;
21645;SDS011;10984;45.712;4.800;2023-02-11T19:34:14;52.15;;;23.05;;
21645;SDS011;10984;45.712;4.800;2023-02-11T19:36:43;48.15;;;22.42;;
21645;SDS011;10984;45.712;4.800;2023-02-11T19:39:10;50.42;;;24.25;;
21645;SDS011;10984;45.712;4.800;2023-02-11T19:41:36;46.72;;;23.52;;
21645;SDS011;10984;45.712;4.800;2023-02-11T19:44:02;50.08;;;23.52;;
21645;SDS011;10984;45.712;4.800;2023-02-11T19:46:30;51.63;;;23.73;;
21645;SDS011;10984;45.712;4.800;2023-02-11T19:48:58;49.50;;;22.73;;
21645;SDS011;10984;45.712;4.800;2023-02-11T19:51:25;48.55;;;22.15;;
21645;SDS011;10984;45.712;4.800;2023-02-11T19:53:50;56.10;;;24.67;;
21645;SDS011;10984;45.712;4.800;2023-02-11T19:56:17;53.00;;;23.10;;
21645;SDS011;10984;45.712;4.800;2023-02-11T19:58:43;55.10;;;24.92;;